Time,TemperatureF,DewpointF,PressureIn,WindDirection,WindDirectionDegrees,WindSpeedMPH,WindSpeedGustMPH,Humidity,HourlyPrecipIn,Conditions,Clouds,dailyrainin,SoftwareType,DateUTC
2013-01-06 16:12:00,-999.0,-99.9,30.12,WSW,239,2.0,4.0,-999,-99.99,,,-99.99,,2013-01-06 21:12:00,
2013-01-06 16:22:00,48.0,-99.9,30.11,North,-999,-999.0,-999.0,-999,-99.99,,,-99.99,,2013-01-06 21:22:00,
2013-01-06 16:33:00,48.0,-99.9,30.11,North,-999,-999.0,-999.0,-999,-99.99,,,-99.99,,2013-01-06 21:33:00,
2013-01-06 16:53:00,-999.0,-99.9,30.10,WSW,254,1.0,2.0,-999,-99.99,,,-99.99,,2013-01-06 21:53:00,
2013-01-06 17:02:00,-999.0,-99.9,30.10,South,176,2.0,3.0,-999,-99.99,,,-99.99,,2013-01-06 22:02:00,
2013-01-06 17:23:00,-999.0,-99.9,30.09,SW,217,1.0,2.0,-999,-99.99,,,-99.99,,2013-01-06 22:23:00,
2013-01-06 17:33:00,48.0,-99.9,30.09,North,-999,-999.0,-999.0,-999,-99.99,,,-99.99,,2013-01-06 22:33:00,
2013-01-06 17:43:00,-999.0,-99.9,30.09,WNW,298,2.0,2.0,-999,-99.99,,,-99.99,,2013-01-06 22:43:00,
2013-01-06 17:53:00,48.0,-99.9,30.09,North,-999,-999.0,-999.0,-999,-99.99,,,-99.99,,2013-01-06 22:53:00,
2013-01-06 18:02:00,48.0,-99.9,30.09,North,-999,-999.0,-999.0,-999,-99.99,,,-99.99,,2013-01-06 23:02:00,
2013-01-06 18:22:00,-999.0,-99.9,30.09,WNW,285,2.0,3.0,-999,-99.99,,,-99.99,,2013-01-06 23:22:00,
2013-01-06 18:33:00,-999.0,-99.9,30.10,West,264,2.0,3.0,-999,-99.99,,,-99.99,,2013-01-06 23:33:00,
2013-01-06 18:43:00,48.0,-99.9,30.10,North,-999,-999.0,-999.0,-999,-99.99,,,-99.99,,2013-01-06 23:43:00,
2013-01-06 18:53:00,-999.0,-99.9,30.09,WNW,295,3.0,4.0,-999,-99.99,,,-99.99,,2013-01-06 23:53:00,
2013-01-06 19:03:00,48.0,-99.9,30.09,North,-999,-999.0,-999.0,-999,-99.99,,,-99.99,,2013-01-07 00:03:00,
2013-01-06 19:12:00,-999.0,-99.9,30.09,SSW,212,2.0,3.0,-999,-99.99,,,-99.99,,2013-01-07 00:12:00,
2013-01-06 19:23:00,48.0,-99.9,30.09,North,-999,-999.0,-999.0,-999,-99.99,,,-99.99,,2013-01-07 00:23:00,
2013-01-06 19:33:00,48.0,-99.9,30.09,North,-999,-999.0,-999.0,-999,-99.99,,,-99.99,,2013-01-07 00:33:00,
2013-01-06 19:43:00,-999.0,-99.9,30.09,SSW,193,5.0,6.0,-999,-99.99,,,-99.99,,2013-01-07 00:43:00,
2013-01-06 19:53:00,48.0,-99.9,30.08,North,-999,-999.0,-999.0,-999,-99.99,,,-99.99,,2013-01-07 00:53:00,
2013-01-06 20:03:00,-999.0,-99.9,30.09,SW,216,3.0,6.0,-999,-99.99,,,-99.99,,2013-01-07 01:03:00,
2013-01-06 20:12:00,-999.0,-99.9,30.08,SSW,194,4.0,5.0,-999,-99.99,,,-99.99,,2013-01-07 01:12:00,
2013-01-06 20:23:00,48.0,-99.9,30.08,North,-999,-999.0,-999.0,-999,-99.99,,,-99.99,,2013-01-07 01:23:00,
2013-01-06 20:32:00,48.0,-99.9,30.09,North,-999,-999.0,-999.0,-999,-99.99,,,-99.99,,2013-01-07 01:32:00,
2013-01-06 20:53:00,-999.0,-99.9,30.09,SW,232,2.0,4.0,-999,-99.99,,,-99.99,,2013-01-07 01:53:00,
2013-01-06 21:02:00,-999.0,-99.9,30.10,NNW,337,3.0,4.0,-999,-99.99,,,-99.99,,2013-01-07 02:02:00,
2013-01-06 21:12:00,48.0,-99.9,30.10,North,-999,-999.0,-999.0,-999,-99.99,,,-99.99,,2013-01-07 02:12:00,
2013-01-06 21:23:00,-999.0,-99.9,30.10,NNW,343,4.0,7.0,-999,-99.99,,,-99.99,,2013-01-07 02:23:00,
2013-01-06 21:33:00,-999.0,-99.9,30.11,NNW,348,4.0,8.0,-999,-99.99,,,-99.99,,2013-01-07 02:33:00,
2013-01-06 21:43:00,47.0,-99.9,30.11,North,-999,-999.0,-999.0,-999,-99.99,,,-99.99,,2013-01-07 02:43:00,
2013-01-06 21:53:00,-999.0,-99.9,30.10,North,353,4.0,6.0,-999,-99.99,,,-99.99,,2013-01-07 02:53:00,
2013-01-06 22:03:00,-999.0,-99.9,30.10,North,351,5.0,5.0,-999,-99.99,,,-99.99,,2013-01-07 03:03:00,
2013-01-06 22:12:00,46.0,-99.9,30.11,NNW,345,6.0,7.0,-999,-99.99,,,-99.99,,2013-01-07 03:12:00,
2013-01-06 22:23:00,-999.0,-99.9,30.10,NNW,346,5.0,7.0,-999,-99.99,,,-99.99,,2013-01-07 03:23:00,
2013-01-06 22:33:00,46.0,-99.9,30.11,North,-999,-999.0,-999.0,-999,-99.99,,,-99.99,,2013-01-07 03:33:00,
2013-01-06 22:43:00,46.0,-99.9,30.11,North,-999,-999.0,-999.0,-999,-99.99,,,-99.99,,2013-01-07 03:43:00,
2013-01-06 22:53:00,-999.0,-99.9,30.11,NNW,342,4.0,5.0,-999,-99.99,,,-99.99,,2013-01-07 03:53:00,
2013-01-06 23:02:00,46.0,-99.9,30.11,North,-999,-999.0,-999.0,-999,-99.99,,,-99.99,,2013-01-07 04:02:00,
2013-01-06 23:22:00,46.0,-99.9,30.11,North,-999,-999.0,-999.0,-999,-99.99,,,-99.99,,2013-01-07 04:22:00,
2013-01-06 23:33:00,-999.0,-99.9,30.12,NNW,329,4.0,7.0,-999,-99.99,,,-99.99,,2013-01-07 04:33:00,
2013-01-06 23:42:00,46.0,-99.9,30.12,NNW,327,5.0,7.0,-999,-99.99,,,-99.99,,2013-01-07 04:42:00,
2013-01-06 23:53:00,46.0,-99.9,30.12,North,-999,-999.0,-999.0,-999,-99.99,,,-99.99,,2013-01-07 04:53:00,